Time;durP1;ratioP1;P1;durP2;ratioP2;P2;SDS_P1;SDS_P2;PMS_P1;PMS_P2;Temp;Humidity;BMP_temperature;BMP_pressure;BME280_temperature;BME280_humidity;BME280_pressure;Samples;Min_cycle;Max_cycle;Signal;HPM_P1;HPM_P2
2022/12/17 13:06:57;;;;;;;10.95;6.05;;;;;;;12.97;94.90;94630.03;4967168;28;20256;-77
2022/12/17 13:09:37;;;;;;;8.77;5.90;;;;;;;12.67;94.50;94630.28;5014586;28;20240;-78
2022/12/17 13:12:20;;;;;;;6.55;3.75;;;;;;;12.40;96.99;94614.66;5029292;28;20222;-78
2022/12/17 13:14:53;;;;;;;8.27;4.30;;;;;;;12.17;98.33;94610.78;5029256;28;20212;-77
2022/12/17 13:17:29;;;;;;;8.20;3.55;;;;;;;11.98;99.67;94612.13;5029524;28;20608;-78
2022/12/17 13:20:03;;;;;;;7.88;4.10;;;;;;;11.91;100.00;94630.88;5029398;28;20257;-78
2022/12/17 13:22:32;;;;;;;6.18;3.92;;;;;;;11.79;100.00;94616.47;5029081;28;20231;-76
2022/12/17 13:25:16;;;;;;;6.65;4.03;;;;;;;11.75;100.00;94643.47;5040932;28;20614;-77
2022/12/17 13:27:44;;;;;;;6.78;3.38;;;;;;;11.81;100.00;94652.22;5029851;28;20203;-77
2022/12/17 13:30:33;;;;;;;5.65;3.53;;;;;;;11.86;100.00;94671.03;5029273;28;20219;-75
2022/12/17 13:33:18;;;;;;;7.60;4.07;;;;;;;11.74;100.00;94658.19;5018580;28;20263;-77
2022/12/17 13:35:58;;;;;;;9.00;5.13;;;;;;;11.79;100.00;94649.84;5028329;28;20641;-77
2022/12/17 13:38:36;;;;;;;5.35;3.78;;;;;;;11.77;100.00;94657.53;5028726;28;20219;-76
2022/12/17 13:41:08;;;;;;;11.98;5.10;;;;;;;11.74;100.00;94658.97;5029202;28;20266;-78
2022/12/17 13:43:42;;;;;;;7.00;4.30;;;;;;;11.73;100.00;94656.59;5029133;28;20638;-77
2022/12/17 13:46:18;;;;;;;7.30;4.15;;;;;;;11.65;100.00;94654.72;5029088;28;20585;-78
2022/12/17 13:48:53;;;;;;;7.25;4.13;;;;;;;11.60;100.00;94657.66;5029168;28;20670;-76
2022/12/17 13:51:21;;;;;;;7.82;3.92;;;;;;;11.56;100.00;94662.16;5029454;28;20659;-78
2022/12/17 13:53:52;;;;;;;7.50;4.40;;;;;;;11.50;100.00;94658.06;5029814;28;20212;-78
2022/12/17 13:56:23;;;;;;;8.98;4.63;;;;;;;11.59;100.00;94661.50;5029667;28;20315;-76
2022/12/17 13:58:52;;;;;;;9.13;4.55;;;;;;;11.66;100.00;94659.03;5028455;28;20224;-77
2022/12/17 14:01:19;;;;;;;9.45;4.68;;;;;;;11.58;100.00;94654.50;5028166;28;20215;-77
2022/12/17 14:03:52;;;;;;;10.10;5.60;;;;;;;11.59;100.00;94664.22;5028816;28;20309;-79
2022/12/17 14:06:20;;;;;;;16.38;7.85;;;;;;;11.52;100.00;94663.94;5028044;28;20205;-78
2022/12/17 14:08:50;;;;;;;11.57;5.57;;;;;;;11.40;100.00;94670.91;5028315;28;20244;-80
2022/12/17 14:14:02;;;;;;;9.18;5.47;;;;;;;11.32;100.00;94693.47;5028462;28;20479;-79
2022/12/17 14:16:30;;;;;;;11.48;5.60;;;;;;;11.17;100.00;94688.63;5028590;28;20204;-79
2022/12/17 14:18:59;;;;;;;11.23;7.05;;;;;;;11.14;100.00;94700.13;5029867;28;20730;-82
2022/12/17 14:21:28;;;;;;;10.18;6.38;;;;;;;11.15;100.00;94700.91;5027735;28;20208;-78
2022/12/17 14:23:57;;;;;;;9.77;5.30;;;;;;;11.16;100.00;94703.31;5030661;28;20200;-76
2022/12/17 14:26:23;;;;;;;12.07;6.20;;;;;;;11.15;100.00;94709.84;5030920;28;20240;-79
2022/12/17 14:28:52;;;;;;;10.65;6.25;;;;;;;11.06;100.00;94702.91;5031850;28;20208;-78
2022/12/17 14:31:21;;;;;;;12.52;6.50;;;;;;;11.09;100.00;94697.59;5033065;28;20364;-79
2022/12/17 14:34:06;;;;;;;12.82;8.48;;;;;;;11.00;100.00;94696.88;5030000;28;20208;-77
2022/12/17 14:36:33;;;;;;;8.68;5.05;;;;;;;10.91;100.00;94696.13;5021182;28;20227;-79
2022/12/17 14:39:02;;;;;;;9.15;4.60;;;;;;;10.84;100.00;94706.69;5027066;28;20235;-78
2022/12/17 14:44:26;;;;;;;11.80;4.78;;;;;;;10.60;100.00;94713.50;5028465;28;20231;-77
2022/12/17 14:47:07;;;;;;;7.57;4.38;;;;;;;10.49;100.00;94706.84;5031780;28;20204;-76
2022/12/17 14:49:40;;;;;;;13.07;8.20;;;;;;;10.35;100.00;94711.69;5030907;28;20204;-75
2022/12/17 14:52:13;;;;;;;15.65;6.65;;;;;;;10.32;100.00;94736.69;5030443;28;20266;-75
2022/12/17 14:54:45;;;;;;;13.85;6.50;;;;;;;10.27;100.00;94732.22;5027555;28;20243;-75
2022/12/17 14:57:20;;;;;;;12.85;6.47;;;;;;;10.22;100.00;94728.91;5028517;28;20220;-78
2022/12/17 14:59:47;;;;;;;12.63;5.38;;;;;;;10.00;100.00;94721.75;5031511;28;20269;-78
2022/12/17 15:02:22;;;;;;;15.35;5.15;;;;;;;9.89;100.00;94720.50;5032096;28;20208;-78
2022/12/17 15:04:51;;;;;;;21.58;9.13;;;;;;;9.89;100.00;94731.31;5018786;28;20623;-78
2022/12/17 15:07:24;;;;;;;11.18;6.30;;;;;;;9.86;100.00;94743.56;5031871;28;20232;-77
2022/12/17 15:09:51;;;;;;;5.15;3.03;;;;;;;9.96;100.00;94737.06;5030704;28;20216;-80
2022/12/17 15:12:18;;;;;;;6.15;2.92;;;;;;;10.03;100.00;94714.91;5031494;28;20659;-79
2022/12/17 15:14:46;;;;;;;12.10;6.07;;;;;;;10.13;100.00;94730.78;5023809;28;20201;-77
2022/12/17 15:17:13;;;;;;;8.73;2.90;;;;;;;10.11;100.00;94763.63;5031962;28;20236;-78
2022/12/17 15:19:39;;;;;;;11.63;3.25;;;;;;;10.08;100.00;94748.03;5031473;28;20699;-76
2022/12/17 15:22:14;;;;;;;7.10;3.10;;;;;;;10.11;100.00;94762.84;5030638;28;20646;-76
2022/12/17 15:24:40;;;;;;;3.33;2.40;;;;;;;10.10;100.00;94766.66;5026741;28;20717;-76
2022/12/17 15:27:09;;;;;;;4.97;2.72;;;;;;;10.01;100.00;94760.44;5031976;28;20659;-77
2022/12/17 15:29:35;;;;;;;5.47;3.33;;;;;;;9.98;100.00;94759.94;5032100;28;20213;-77
2022/12/17 15:32:02;;;;;;;7.38;4.82;;;;;;;9.91;100.00;94765.06;5031462;28;20259;-76
2022/12/17 15:34:30;;;;;;;7.90;4.45;;;;;;;9.70;100.00;94764.13;5025944;28;20220;-78
2022/12/17 15:36:56;;;;;;;7.95;4.72;;;;;;;9.53;100.00;94758.72;5031147;28;20231;-77
2022/12/17 15:39:24;;;;;;;6.85;4.18;;;;;;;9.50;100.00;94765.53;5031010;28;20323;-75
2022/12/17 15:44:36;;;;;;;19.00;12.13;;;;;;;9.38;100.00;94759.16;5019769;28;20639;-77
2022/12/17 15:47:02;;;;;;;10.10;4.53;;;;;;;9.16;100.00;94770.88;5030908;28;20204;-78
2022/12/17 15:49:29;;;;;;;12.80;4.55;;;;;;;9.16;100.00;94773.59;5030809;28;20216;-76
2022/12/17 15:51:56;;;;;;;8.23;4.20;;;;;;;9.14;100.00;94782.03;5030306;28;20552;-76
2022/12/17 15:54:24;;;;;;;17.40;8.18;;;;;;;9.08;100.00;94777.88;5028331;28;20199;-77
2022/12/17 15:56:56;;;;;;;11.95;7.35;;;;;;;9.13;100.00;94785.03;5030270;28;20264;-76
2022/12/17 15:59:24;;;;;;;12.60;6.45;;;;;;;9.04;100.00;94782.31;5030991;28;20236;-78
2022/12/17 16:01:51;;;;;;;14.88;7.05;;;;;;;9.03;100.00;94780.72;5030202;28;20208;-77
2022/12/17 16:04:17;;;;;;;11.85;6.65;;;;;;;8.99;100.00;94790.56;5023227;28;20585;-77
2022/12/17 16:06:44;;;;;;;11.20;5.65;;;;;;;8.99;100.00;94784.38;5014073;28;20204;-78
2022/12/17 16:09:11;;;;;;;7.10;5.53;;;;;;;8.99;100.00;94785.16;5029898;28;20240;-77
2022/12/17 16:11:39;;;;;;;14.02;7.40;;;;;;;8.99;100.00;94778.97;5029337;28;20224;-76
2022/12/17 16:14:06;;;;;;;13.32;7.40;;;;;;;8.88;100.00;94794.66;5028268;28;20279;-79
2022/12/17 16:16:33;;;;;;;13.15;5.95;;;;;;;8.82;100.00;94806.72;5031156;28;20204;-80
2022/12/17 16:19:00;;;;;;;11.52;6.25;;;;;;;8.76;100.00;94807.94;5029447;28;20498;-80
2022/12/17 16:21:29;;;;;;;17.35;8.32;;;;;;;8.82;100.00;94812.13;5029855;28;20230;-76
2022/12/17 16:23:56;;;;;;;16.33;8.68;;;;;;;8.70;100.00;94810.00;5038763;28;20290;-76
2022/12/17 16:26:23;;;;;;;29.40;14.07;;;;;;;8.60;100.00;94826.47;5031856;28;20220;-78
2022/12/17 16:28:51;;;;;;;19.90;9.70;;;;;;;8.50;100.00;94810.53;5023586;28;20691;-77
2022/12/17 16:31:18;;;;;;;21.60;11.32;;;;;;;8.66;100.00;94824.44;5026631;28;20200;-78
2022/12/17 16:33:46;;;;;;;23.90;10.73;;;;;;;8.63;100.00;94825.03;5018038;28;20578;-79
2022/12/17 16:36:15;;;;;;;23.35;11.07;;;;;;;8.64;100.00;94842.84;5030387;28;20251;-84
2022/12/17 16:38:44;;;;;;;23.42;11.38;;;;;;;8.52;100.00;94836.09;5031510;28;20290;-77
2022/12/17 16:41:11;;;;;;;23.60;10.55;;;;;;;8.41;100.00;94834.78;5029261;28;20626;-80
2022/12/17 16:43:38;;;;;;;19.90;8.93;;;;;;;8.45;100.00;94841.16;5031123;28;20200;-79
2022/12/17 16:46:24;;;;;;;22.23;11.40;;;;;;;8.37;100.00;94843.78;5023990;28;20411;-78
2022/12/17 16:48:51;;;;;;;24.02;11.63;;;;;;;8.39;100.00;94842.38;5026417;28;20196;-75
2022/12/17 16:51:19;;;;;;;26.17;12.00;;;;;;;8.42;100.00;94838.28;5028083;28;20201;-76
2022/12/17 16:53:46;;;;;;;24.55;13.18;;;;;;;8.44;100.00;94836.06;5021571;28;20196;-79
2022/12/17 16:56:16;;;;;;;32.22;15.65;;;;;;;8.40;100.00;94843.97;5030078;28;20235;-76
2022/12/17 16:58:43;;;;;;;23.65;14.00;;;;;;;8.31;100.00;94843.09;5024448;28;20220;-78
2022/12/17 17:01:12;;;;;;;53.42;23.88;;;;;;;8.44;100.00;94855.75;5029826;28;20254;-75
2022/12/17 17:03:40;;;;;;;53.65;23.35;;;;;;;8.48;100.00;94859.41;5031035;28;20258;-78
2022/12/17 17:06:07;;;;;;;40.30;20.10;;;;;;;8.40;100.00;94865.56;5029895;28;20295;-77
2022/12/17 17:08:35;;;;;;;38.97;19.15;;;;;;;8.38;100.00;94866.97;5029785;28;20232;-77
2022/12/17 17:11:09;;;;;;;32.25;15.88;;;;;;;8.33;100.00;94865.22;5025780;28;20810;-82
2022/12/17 17:13:37;;;;;;;31.50;15.05;;;;;;;8.37;100.00;94860.78;5028551;28;20204;-76
2022/12/17 17:16:04;;;;;;;28.05;13.50;;;;;;;8.32;100.00;94868.22;5016689;28;20722;-76
2022/12/17 17:18:32;;;;;;;28.15;14.57;;;;;;;8.31;100.00;94861.19;5022402;28;20228;-76
2022/12/17 17:21:16;;;;;;;26.25;12.32;;;;;;;8.19;100.00;94878.75;5010464;28;20204;-77
2022/12/17 17:23:43;;;;;;;16.98;9.55;;;;;;;8.17;100.00;94885.53;5027081;28;20195;-76
2022/12/17 17:26:10;;;;;;;25.55;12.65;;;;;;;7.98;100.00;94890.28;5046165;28;20203;-77
2022/12/17 17:28:38;;;;;;;32.22;16.50;;;;;;;7.98;100.00;94896.50;5030113;28;20204;-76
2022/12/17 17:31:06;;;;;;;48.38;23.13;;;;;;;7.85;100.00;94891.94;5029882;28;20681;-74
2022/12/17 17:33:37;;;;;;;45.95;27.17;;;;;;;7.87;100.00;94894.31;5029944;28;20204;-78
2022/12/17 17:36:05;;;;;;;39.97;21.48;;;;;;;7.79;100.00;94904.72;5016500;28;20220;-78
2022/12/17 17:38:33;;;;;;;38.08;17.92;;;;;;;7.82;100.00;94901.41;5026622;28;20322;-77
2022/12/17 17:41:01;;;;;;;30.10;13.45;;;;;;;7.87;100.00;94899.72;5030591;28;20272;-77
2022/12/17 17:43:28;;;;;;;44.80;17.80;;;;;;;7.93;100.00;94909.28;5029682;28;20207;-77
2022/12/17 17:45:59;;;;;;;22.25;11.07;;;;;;;8.04;100.00;94913.38;5027115;28;20200;-87
2022/12/17 17:48:26;;;;;;;16.73;7.45;;;;;;;8.86;100.00;94902.22;5028719;28;20196;-89
2022/12/17 17:51:01;;;;;;;22.52;9.95;;;;;;;8.69;100.00;94904.81;5014340;28;20243;-76
2022/12/17 17:53:28;;;;;;;15.20;9.48;;;;;;;8.46;100.00;94912.94;5024118;28;20212;-76
2022/12/17 17:56:01;;;;;;;16.73;8.85;;;;;;;8.27;100.00;94914.19;5029550;28;20681;-76
2022/12/17 17:58:29;;;;;;;13.27;7.35;;;;;;;8.14;100.00;94922.03;5013505;28;20234;-79
2022/12/17 18:00:56;;;;;;;13.30;6.30;;;;;;;8.16;100.00;94917.13;5020276;28;20266;-76
2022/12/17 18:03:23;;;;;;;12.75;7.32;;;;;;;8.17;100.00;94915.22;5032298;28;20196;-76
2022/12/17 18:05:50;;;;;;;15.10;8.52;;;;;;;8.17;100.00;94931.41;5030727;28;20196;-77
2022/12/17 18:08:18;;;;;;;26.55;10.85;;;;;;;8.09;100.00;94929.44;5029835;28;20237;-76
2022/12/17 18:10:55;;;;;;;14.57;8.20;;;;;;;7.82;100.00;94947.25;5023350;28;20204;-76
2022/12/17 18:16:06;;;;;;;37.47;16.30;;;;;;;7.82;100.00;94959.94;5031548;28;20204;-77
2022/12/17 18:18:33;;;;;;;47.22;17.70;;;;;;;7.89;100.00;94962.25;5032950;28;20707;-76
2022/12/17 18:21:05;;;;;;;29.40;13.48;;;;;;;7.79;100.00;94955.94;5033494;28;20207;-79
2022/12/17 18:23:33;;;;;;;36.90;15.68;;;;;;;7.73;100.00;94975.25;5039701;28;20265;-79
2022/12/17 18:26:09;;;;;;;38.78;15.38;;;;;;;7.69;100.00;94980.44;5035951;28;20201;-76
2022/12/17 18:28:36;;;;;;;26.13;12.63;;;;;;;7.67;100.00;94977.22;5033796;28;20215;-77
2022/12/17 18:31:08;;;;;;;28.23;14.25;;;;;;;7.75;100.00;94995.44;5030391;28;20212;-76
2022/12/17 18:33:35;;;;;;;28.02;14.35;;;;;;;7.81;100.00;94994.22;5023206;28;20204;-78
2022/12/17 18:36:02;;;;;;;28.75;13.90;;;;;;;7.88;100.00;94998.41;5027176;28;20225;-76
2022/12/17 18:38:29;;;;;;;24.27;12.88;;;;;;;7.84;100.00;94996.31;5023471;28;20208;-76
2022/12/17 18:40:57;;;;;;;29.02;14.10;;;;;;;7.94;100.00;95008.78;5031876;28;20200;-76
2022/12/17 18:43:24;;;;;;;29.20;13.48;;;;;;;7.96;100.00;95009.28;5028805;28;20208;-78
2022/12/17 18:45:51;;;;;;;28.55;14.13;;;;;;;7.98;100.00;95014.38;5026106;28;20212;-78
2022/12/17 18:48:19;;;;;;;32.75;13.98;;;;;;;7.95;100.00;95015.78;5023716;28;20216;-76
2022/12/17 18:50:46;;;;;;;33.75;14.65;;;;;;;7.86;100.00;95017.59;5030572;28;20291;-78
2022/12/17 18:53:12;;;;;;;24.77;13.45;;;;;;;7.88;100.00;95030.78;5032031;28;20752;-76
2022/12/17 18:55:40;;;;;;;25.08;13.38;;;;;;;7.96;100.00;95038.16;5029131;28;20259;-77
2022/12/17 18:58:09;;;;;;;27.88;14.02;;;;;;;7.92;100.00;95040.69;5032166;28;20659;-77
2022/12/17 19:00:37;;;;;;;28.88;14.27;;;;;;;7.88;100.00;95036.97;5012954;28;20233;-78
2022/12/17 19:03:04;;;;;;;36.30;16.20;;;;;;;7.80;100.00;95030.38;5024476;28;20291;-77
2022/12/17 19:05:31;;;;;;;26.40;13.32;;;;;;;7.80;100.00;95041.16;5015791;28;20259;-79
2022/12/17 19:07:58;;;;;;;31.80;14.82;;;;;;;7.81;100.00;95042.75;5025176;28;20239;-77
2022/12/17 19:10:24;;;;;;;33.65;15.13;;;;;;;7.79;100.00;95047.63;5031818;28;20954;-77
2022/12/17 19:12:51;;;;;;;23.95;11.85;;;;;;;7.96;100.00;95051.66;5032552;28;20610;-79
2022/12/17 19:15:20;;;;;;;18.20;8.98;;;;;;;7.89;100.00;95059.34;5019065;28;20730;-77
2022/12/17 19:17:49;;;;;;;18.73;9.32;;;;;;;7.98;100.00;95068.34;5025771;28;20196;-79
2022/12/17 19:20:17;;;;;;;25.20;11.57;;;;;;;8.01;100.00;95071.25;5012857;28;20704;-77
2022/12/17 19:22:44;;;;;;;23.73;12.52;;;;;;;7.99;100.00;95080.72;5025331;28;20220;-78
2022/12/17 19:25:11;;;;;;;16.13;9.50;;;;;;;8.00;100.00;95082.31;5042894;28;20200;-80
2022/12/17 19:27:38;;;;;;;15.77;8.23;;;;;;;7.96;100.00;95079.41;5028271;28;20300;-77
2022/12/17 19:30:05;;;;;;;18.65;8.35;;;;;;;7.90;100.00;95077.13;5020692;28;20258;-78
2022/12/17 19:32:34;;;;;;;15.40;8.15;;;;;;;7.90;100.00;95085.22;5018328;28;20234;-77
2022/12/17 19:35:00;;;;;;;17.30;8.65;;;;;;;7.91;100.00;95078.75;5031855;28;20286;-77
2022/12/17 19:37:27;;;;;;;31.15;15.40;;;;;;;7.79;100.00;95071.91;5028658;28;20664;-77
2022/12/17 19:39:54;;;;;;;28.17;11.07;;;;;;;7.87;100.00;95085.81;5026927;28;20228;-77
2022/12/17 19:42:27;;;;;;;12.52;6.90;;;;;;;7.83;100.00;95082.91;5029922;28;20204;-77
2022/12/17 19:44:54;;;;;;;12.90;6.50;;;;;;;7.85;100.00;95086.91;5030253;28;20242;-76
2022/12/17 19:47:22;;;;;;;15.88;6.50;;;;;;;7.88;100.00;95090.13;5031325;28;20235;-75
2022/12/17 19:49:50;;;;;;;15.32;8.02;;;;;;;7.92;100.00;95085.72;5030711;28;20208;-77
2022/12/17 19:52:17;;;;;;;12.32;6.82;;;;;;;7.90;100.00;95093.31;5031607;28;20255;-78
2022/12/17 19:54:44;;;;;;;15.32;8.85;;;;;;;7.89;100.00;95092.50;5030899;28;20225;-78
2022/12/17 19:57:11;;;;;;;12.10;6.28;;;;;;;7.91;100.00;95100.31;5027699;28;20270;-77
2022/12/17 19:59:37;;;;;;;15.43;7.50;;;;;;;7.94;100.00;95108.59;5022970;28;20286;-75
2022/12/17 20:02:04;;;;;;;10.50;6.28;;;;;;;7.98;100.00;95106.09;5017788;28;20204;-75
2022/12/17 20:04:31;;;;;;;15.20;8.07;;;;;;;7.99;100.00;95105.00;5029669;28;20251;-79
2022/12/17 20:06:59;;;;;;;9.40;5.97;;;;;;;7.96;100.00;95109.09;5031048;28;20663;-81
2022/12/17 20:09:26;;;;;;;13.27;7.38;;;;;;;7.92;100.00;95108.09;5030767;28;20251;-77
2022/12/17 20:11:53;;;;;;;7.97;5.22;;;;;;;7.99;100.00;95118.50;5020683;28;20197;-77
2022/12/17 20:14:22;;;;;;;15.05;7.75;;;;;;;7.96;100.00;95114.47;5028165;28;20204;-77
2022/12/17 20:16:50;;;;;;;8.35;5.40;;;;;;;8.02;100.00;95128.69;5029083;28;20540;-78
2022/12/17 20:19:19;;;;;;;12.25;7.20;;;;;;;8.06;100.00;95133.16;5030741;28;20232;-79
2022/12/17 20:21:46;;;;;;;14.35;7.47;;;;;;;8.08;100.00;95132.88;5030016;28;20710;-79
2022/12/17 20:24:15;;;;;;;19.98;7.53;;;;;;;8.16;100.00;95140.28;5026562;28;20609;-80
2022/12/17 20:26:43;;;;;;;16.75;7.85;;;;;;;8.21;100.00;95140.19;5025990;28;20611;-76
2022/12/17 20:29:09;;;;;;;16.17;7.55;;;;;;;8.23;100.00;95140.69;5017569;28;20212;-78
2022/12/17 20:31:37;;;;;;;14.23;7.63;;;;;;;8.16;100.00;95135.69;5028561;28;20251;-77
2022/12/17 20:34:06;;;;;;;6.95;3.95;;;;;;;8.21;100.00;95140.19;5026871;28;20200;-77
2022/12/17 20:36:34;;;;;;;13.73;6.38;;;;;;;8.21;100.00;95143.69;5017866;28;20707;-77
2022/12/17 20:39:01;;;;;;;10.18;5.55;;;;;;;8.28;100.00;95148.69;5030733;28;20610;-76
2022/12/17 20:41:30;;;;;;;23.33;6.85;;;;;;;8.28;100.00;95148.69;5025974;28;20223;-76
2022/12/17 20:43:57;;;;;;;13.32;4.15;;;;;;;8.30;100.00;95156.50;5016473;28;20545;-79
2022/12/17 20:46:25;;;;;;;12.95;6.28;;;;;;;8.31;100.00;95167.00;5020646;28;20211;-77
2022/12/17 20:48:53;;;;;;;8.82;5.78;;;;;;;8.31;100.00;95161.59;5016534;28;20235;-82
2022/12/17 20:51:23;;;;;;;11.02;5.97;;;;;;;8.31;100.00;95167.00;5022181;28;20200;-76
2022/12/17 20:53:51;;;;;;;11.95;6.82;;;;;;;8.26;100.00;95177.88;5015198;28;20204;-74
2022/12/17 20:56:20;;;;;;;9.57;6.10;;;;;;;8.31;100.00;95177.78;5029433;28;20228;-73
2022/12/17 20:58:52;;;;;;;11.55;6.68;;;;;;;8.25;100.00;95181.66;5024767;28;20228;-75
2022/12/17 21:01:21;;;;;;;9.50;5.45;;;;;;;8.28;100.00;95175.69;5018264;28;20837;-75
2022/12/17 21:03:49;;;;;;;18.77;7.75;;;;;;;8.30;100.00;95180.78;5022315;28;20270;-75
2022/12/17 21:06:19;;;;;;;11.25;5.03;;;;;;;8.24;100.00;95185.47;5016708;28;20876;-75
2022/12/17 21:08:47;;;;;;;6.95;3.78;;;;;;;8.29;100.00;95187.28;5022176;28;20233;-77
2022/12/17 21:11:14;;;;;;;14.43;6.72;;;;;;;8.29;100.00;95204.28;5023480;28;20200;-74
2022/12/17 21:13:41;;;;;;;11.57;5.97;;;;;;;8.30;100.00;95200.47;5028743;28;20424;-78
2022/12/17 21:16:12;;;;;;;14.02;7.13;;;;;;;8.27;100.00;95201.06;5029201;28;20205;-76
2022/12/17 21:18:39;;;;;;;9.48;5.35;;;;;;;8.28;100.00;95202.66;5021819;28;20201;-76
2022/12/17 21:21:08;;;;;;;10.75;5.50;;;;;;;8.25;100.00;95191.66;5010678;28;20236;-79
2022/12/17 21:23:35;;;;;;;13.10;6.45;;;;;;;8.26;100.00;95209.44;5025759;28;20254;-79
2022/12/17 21:26:07;;;;;;;10.20;6.20;;;;;;;8.21;100.00;95213.84;5034153;28;20220;-76
2022/12/17 21:28:37;;;;;;;15.50;7.60;;;;;;;8.17;100.00;95214.75;5019633;28;20193;-76
2022/12/17 21:31:04;;;;;;;10.85;6.00;;;;;;;8.16;100.00;95213.16;5022110;28;20194;-76
2022/12/17 21:33:32;;;;;;;10.13;5.43;;;;;;;8.13;100.00;95211.84;5029813;28;20188;-76
2022/12/17 21:35:59;;;;;;;7.30;3.65;;;;;;;8.13;100.00;95216.44;5012712;28;20200;-76
2022/12/17 21:38:27;;;;;;;7.80;5.13;;;;;;;8.17;100.00;95220.94;5027122;28;20196;-80
2022/12/17 21:40:54;;;;;;;11.10;5.43;;;;;;;8.19;100.00;95215.25;5030638;28;20224;-77
2022/12/17 21:43:21;;;;;;;10.20;5.45;;;;;;;8.21;100.00;95224.63;5027852;28;20200;-79
2022/12/17 21:45:47;;;;;;;8.85;4.45;;;;;;;8.25;100.00;95232.94;5029751;28;20208;-75
2022/12/17 21:48:14;;;;;;;9.75;5.15;;;;;;;8.21;100.00;95234.63;5029560;28;20733;-75
2022/12/17 21:50:44;;;;;;;10.32;5.32;;;;;;;8.20;100.00;95233.03;5016093;28;20311;-74
2022/12/17 21:53:11;;;;;;;6.65;3.58;;;;;;;8.26;100.00;95234.53;5019101;28;20212;-76
2022/12/17 21:55:38;;;;;;;3.88;3.10;;;;;;;8.22;100.00;95233.53;5028598;28;20283;-75
2022/12/17 21:58:06;;;;;;;6.07;3.15;;;;;;;8.17;100.00;95247.13;5029573;28;20208;-76
2022/12/17 22:00:33;;;;;;;7.30;4.07;;;;;;;8.20;100.00;95233.81;5015798;28;20584;-76
2022/12/17 22:03:01;;;;;;;8.70;4.93;;;;;;;8.17;100.00;95239.03;5019015;28;20738;-81
2022/12/17 22:05:28;;;;;;;5.60;2.20;;;;;;;8.14;100.00;95239.63;5022934;28;20213;-78
2022/12/17 22:07:56;;;;;;;6.00;3.55;;;;;;;8.11;100.00;95242.91;5021951;28;20224;-74
2022/12/17 22:10:22;;;;;;;8.95;4.47;;;;;;;8.15;100.00;95241.22;5016042;28;20216;-74
2022/12/17 22:15:33;;;;;;;6.28;3.65;;;;;;;8.13;100.00;95243.41;5018559;28;20227;-76
2022/12/17 22:18:00;;;;;;;6.88;3.85;;;;;;;8.10;100.00;95238.59;5027220;28;20351;-76
2022/12/17 22:20:26;;;;;;;8.27;3.95;;;;;;;8.11;100.00;95248.31;5009819;28;20314;-80
2022/12/17 22:22:56;;;;;;;5.75;3.30;;;;;;;8.14;100.00;95256.63;5024847;28;20597;-79
2022/12/17 22:25:22;;;;;;;3.60;2.72;;;;;;;8.12;100.00;95247.22;5041483;28;20208;-74
2022/12/17 22:27:49;;;;;;;5.03;2.83;;;;;;;8.06;100.00;95249.19;5029803;28;20274;-80
2022/12/17 22:33:05;;;;;;;5.57;2.85;;;;;;;8.07;100.00;95260.78;5029102;28;20307;-76
2022/12/17 22:35:37;;;;;;;2.95;2.45;;;;;;;8.08;100.00;95251.59;5029184;28;20211;-77
2022/12/17 22:38:06;;;;;;;5.53;3.00;;;;;;;8.14;100.00;95250.41;5028357;28;20630;-77
2022/12/17 22:40:33;;;;;;;6.53;4.10;;;;;;;8.07;100.00;95260.78;5029187;28;20306;-77
2022/12/17 22:45:44;;;;;;;2.92;1.60;;;;;;;7.97;100.00;95261.75;5031783;28;20341;-78
2022/12/17 22:48:13;;;;;;;3.30;2.80;;;;;;;7.96;100.00;95272.84;5032084;28;20204;-77
2022/12/17 22:50:41;;;;;;;5.95;2.78;;;;;;;7.87;100.00;95267.31;5031564;28;20609;-77
2022/12/17 22:53:09;;;;;;;4.45;3.00;;;;;;;7.81;100.00;95280.09;5031598;28;20271;-77
2022/12/17 22:55:36;;;;;;;2.42;1.80;;;;;;;7.80;100.00;95273.09;5031405;28;20637;-76
2022/12/17 22:58:03;;;;;;;4.93;2.53;;;;;;;7.75;100.00;95281.28;5032013;28;20295;-77
2022/12/17 23:00:32;;;;;;;3.28;1.65;;;;;;;7.72;100.00;95276.47;5031491;28;20303;-76
2022/12/17 23:02:59;;;;;;;5.28;2.05;;;;;;;7.59;100.00;95266.41;5031961;28;20290;-73
2022/12/17 23:05:27;;;;;;;3.85;2.10;;;;;;;7.66;100.00;95283.00;5031365;28;20212;-75
2022/12/17 23:07:55;;;;;;;5.68;2.90;;;;;;;7.65;100.00;95277.94;5031208;28;20639;-77
2022/12/17 23:10:24;;;;;;;3.28;2.40;;;;;;;7.64;100.00;95284.41;5018235;28;20204;-75
2022/12/17 23:12:51;;;;;;;3.20;2.10;;;;;;;7.62;100.00;95287.41;5030636;28;20691;-76
2022/12/17 23:15:19;;;;;;;2.63;1.55;;;;;;;7.61;100.00;95293.88;5030555;28;20285;-76
2022/12/17 23:17:46;;;;;;;5.63;2.55;;;;;;;7.57;100.00;95306.34;5031377;28;20254;-75
2022/12/17 23:20:14;;;;;;;2.95;1.75;;;;;;;7.53;100.00;95299.91;5031182;28;20236;-77
2022/12/17 23:22:40;;;;;;;2.75;1.70;;;;;;;7.47;100.00;95306.50;5030244;28;20620;-75
2022/12/17 23:25:08;;;;;;;4.00;2.80;;;;;;;7.38;100.00;95314.41;5041406;28;20715;-77
2022/12/17 23:27:36;;;;;;;2.83;1.63;;;;;;;7.33;100.00;95316.38;5030785;28;20622;-77
2022/12/17 23:30:09;;;;;;;2.28;1.85;;;;;;;7.25;100.00;95317.00;5030596;28;20204;-74
2022/12/17 23:32:37;;;;;;;2.33;1.60;;;;;;;7.15;100.00;95315.25;5030941;28;20650;-75
2022/12/17 23:35:04;;;;;;;1.75;1.48;;;;;;;7.20;100.00;95322.50;5030972;28;20226;-76
2022/12/17 23:37:31;;;;;;;2.85;1.25;;;;;;;7.10;100.00;95324.22;5031395;28;20228;-76
2022/12/17 23:39:58;;;;;;;2.92;1.48;;;;;;;7.16;100.00;95332.22;5030857;28;20208;-75
2022/12/17 23:42:25;;;;;;;1.67;1.27;;;;;;;7.08;100.00;95334.50;5030445;28;20204;-74
2022/12/17 23:44:53;;;;;;;3.53;1.33;;;;;;;7.10;100.00;95345.78;5030608;28;20204;-76
2022/12/17 23:47:20;;;;;;;2.38;1.63;;;;;;;7.02;100.00;95332.94;5031252;28;20208;-75
2022/12/17 23:49:47;;;;;;;2.13;1.58;;;;;;;6.87;100.00;95348.47;5030848;28;20208;-75
2022/12/17 23:52:13;;;;;;;1.25;1.05;;;;;;;6.72;100.00;95354.81;5025614;28;20213;-76
2022/12/17 23:54:40;;;;;;;1.60;0.98;;;;;;;6.61;100.00;95358.69;5021224;28;20294;-73
2022/12/17 23:57:07;;;;;;;2.42;1.50;;;;;;;6.58;100.00;95364.63;5026906;28;20263;-75
2022/12/17 23:59:34;;;;;;;2.20;1.45;;;;;;;6.53;100.00;95373.59;5022847;28;20266;-74
